Time;durP1;ratioP1;P1;durP2;ratioP2;P2;SDS_P1;SDS_P2;PMS_P1;PMS_P2;Temp;Humidity;BMP_temperature;BMP_pressure;BME280_temperature;BME280_humidity;BME280_pressure;Samples;Min_cycle;Max_cycle;Signal;HPM_P1;HPM_P2
2021/11/02 00:01:48;;;;;;;5.53;2.30;;;;;;;-145.18;100.00;60484.78;4977735;28;20084;-66
2021/11/02 00:04:13;;;;;;;5.63;2.10;;;;;;;-145.18;100.00;60484.78;4978006;28;20074;-65
2021/11/02 00:06:39;;;;;;;7.80;2.07;;;;;;;-145.18;100.00;60484.78;4978101;28;20092;-65
2021/11/02 00:09:08;;;;;;;4.63;2.00;;;;;;;-145.18;100.00;60484.78;4985118;28;20053;-65
2021/11/02 00:11:40;;;;;;;7.23;2.40;;;;;;;-145.18;100.00;60484.78;4993010;28;20545;-65
2021/11/02 00:14:08;;;;;;;4.43;2.10;;;;;;;-145.18;100.00;60484.78;4996259;28;20238;-65
2021/11/02 00:16:38;;;;;;;5.57;2.08;;;;;;;-145.18;100.00;60484.78;4992293;28;20251;-65
2021/11/02 00:19:05;;;;;;;6.47;2.20;;;;;;;-145.18;100.00;60484.78;4995153;28;20513;-65
2021/11/02 00:21:40;;;;;;;7.37;2.10;;;;;;;-145.18;100.00;60484.78;4996074;28;20037;-65
2021/11/02 00:24:37;;;;;;;7.93;2.23;;;;;;;-145.18;100.00;60484.78;4994839;28;20627;-65
2021/11/02 00:26:54;;;;;;;6.77;2.30;;;;;;;-145.18;100.00;60484.78;4988366;28;20200;-65
2021/11/02 00:29:19;;;;;;;4.67;2.20;;;;;;;-145.18;100.00;60484.78;4991627;28;20018;-65
2021/11/02 00:31:44;;;;;;;4.67;2.13;;;;;;;-145.18;100.00;60484.78;4992554;28;20025;-65
2021/11/02 00:34:10;;;;;;;7.60;2.23;;;;;;;-145.18;100.00;60484.78;5038788;28;20174;-65
2021/11/02 00:36:35;;;;;;;5.30;2.07;;;;;;;-145.18;100.00;60484.78;5079469;28;20032;-65
2021/11/02 00:39:02;;;;;;;5.80;2.33;;;;;;;-145.18;100.00;60484.78;5078638;28;20043;-65
2021/11/02 00:41:28;;;;;;;7.03;3.03;;;;;;;-145.18;100.00;60484.78;5071608;28;20284;-65
2021/11/02 00:43:55;;;;;;;4.43;2.00;;;;;;;-145.18;100.00;60484.78;5079159;28;20515;-65
2021/11/02 00:46:26;;;;;;;5.40;2.63;;;;;;;-145.18;100.00;60484.78;5066595;28;20192;-65
2021/11/02 00:48:52;;;;;;;4.57;2.17;;;;;;;-145.18;100.00;60484.78;5072953;28;20028;-65
2021/11/02 00:51:17;;;;;;;7.73;2.47;;;;;;;-145.18;100.00;60484.78;5072426;28;20027;-65
2021/11/02 00:53:43;;;;;;;5.73;2.87;;;;;;;-145.18;100.00;60484.78;5076433;28;20560;-65
2021/11/02 00:56:08;;;;;;;7.23;2.67;;;;;;;-145.18;100.00;60484.78;5074839;28;20028;-65
2021/11/02 00:58:34;;;;;;;5.97;2.33;;;;;;;-145.18;100.00;60484.78;5078325;28;20024;-65
2021/11/02 01:01:00;;;;;;;6.80;2.93;;;;;;;-145.18;100.00;60484.78;5072479;28;20028;-65
2021/11/02 01:03:25;;;;;;;6.27;2.57;;;;;;;-145.18;100.00;60484.78;5072270;28;20288;-65
2021/11/02 01:05:50;;;;;;;10.20;3.87;;;;;;;-145.18;100.00;60484.78;5067968;28;20056;-65
2021/11/02 01:08:16;;;;;;;5.33;3.00;;;;;;;-145.18;100.00;60484.78;5079554;28;20040;-65
2021/11/02 01:10:47;;;;;;;8.23;2.43;;;;;;;-145.18;100.00;60484.78;5076911;28;20107;-65
2021/11/02 01:13:13;;;;;;;6.53;2.67;;;;;;;-145.18;100.00;60484.78;5079493;28;20191;-65
2021/11/02 01:15:39;;;;;;;5.23;2.37;;;;;;;-145.18;100.00;60484.78;5077760;28;20557;-65
2021/11/02 01:18:04;;;;;;;12.17;2.60;;;;;;;-145.18;100.00;60484.78;5078882;28;20024;-65
2021/11/02 01:20:30;;;;;;;6.80;2.50;;;;;;;-145.18;100.00;60484.78;5078228;28;20032;-67
2021/11/02 01:22:56;;;;;;;9.93;3.00;;;;;;;-145.18;100.00;60484.78;5075350;28;20024;-65
2021/11/02 01:25:22;;;;;;;5.67;2.70;;;;;;;-145.18;100.00;60484.78;5078710;28;20036;-65
2021/11/02 01:27:48;;;;;;;5.80;2.40;;;;;;;-145.18;100.00;60484.78;5075687;28;20081;-65
2021/11/02 01:30:14;;;;;;;7.17;3.23;;;;;;;-145.18;100.00;60484.78;5078700;28;20047;-65
2021/11/02 01:32:41;;;;;;;12.60;3.13;;;;;;;-145.18;100.00;60484.78;5079383;28;20577;-65
2021/11/02 01:35:07;;;;;;;8.10;3.07;;;;;;;-145.18;100.00;60484.78;5079568;28;20387;-65
2021/11/02 01:37:34;;;;;;;9.30;2.80;;;;;;;-145.18;100.00;60484.78;5078348;28;20316;-67
2021/11/02 01:39:59;;;;;;;10.73;3.30;;;;;;;-145.18;100.00;60484.78;5075773;28;20232;-66
2021/11/02 01:42:26;;;;;;;9.60;3.20;;;;;;;-145.18;100.00;60484.78;5067417;28;20423;-65
2021/11/02 01:44:56;;;;;;;8.27;3.50;;;;;;;-145.18;100.00;60484.78;5073040;28;20516;-65
2021/11/02 01:47:22;;;;;;;8.00;3.50;;;;;;;-145.18;100.00;60484.78;5071781;28;20411;-65
2021/11/02 01:49:49;;;;;;;9.50;3.60;;;;;;;-145.18;100.00;60484.78;5071561;28;20484;-65
2021/11/02 01:52:14;;;;;;;10.80;3.20;;;;;;;-145.18;100.00;60484.78;5072994;28;20399;-65
2021/11/02 01:54:40;;;;;;;6.90;3.37;;;;;;;-145.18;100.00;60484.78;5078484;28;20082;-65
2021/11/02 01:57:06;;;;;;;13.13;3.77;;;;;;;-145.18;100.00;60484.78;5073689;28;20043;-66
2021/11/02 01:59:34;;;;;;;9.20;3.30;;;;;;;-145.18;100.00;60484.78;5068418;28;20074;-65
2021/11/02 02:02:29;;;;;;;6.90;2.90;;;;;;;-145.18;100.00;60484.78;5077561;28;20051;-65
2021/11/02 02:05:04;;;;;;;11.23;3.23;;;;;;;-145.18;100.00;60484.78;5065697;28;20224;-65
2021/11/02 02:08:03;;;;;;;11.63;3.67;;;;;;;-145.18;100.00;60484.78;5078341;28;20048;-65
2021/11/02 02:10:47;;;;;;;11.03;3.33;;;;;;;-145.18;100.00;60484.78;5074171;28;20034;-65
2021/11/02 02:13:28;;;;;;;7.93;3.10;;;;;;;-145.18;100.00;60484.78;5074117;28;20062;-65
2021/11/02 02:16:01;;;;;;;8.37;3.20;;;;;;;-145.18;100.00;60484.78;5078250;28;20039;-65
2021/11/02 02:18:42;;;;;;;10.70;3.60;;;;;;;-145.18;100.00;60484.78;5076286;28;20057;-65
2021/11/02 02:21:33;;;;;;;11.47;3.43;;;;;;;-145.18;100.00;60484.78;5063679;28;20115;-65
2021/11/02 02:24:40;;;;;;;7.87;3.20;;;;;;;-145.18;100.00;60484.78;5069649;28;20260;-67
2021/11/02 02:27:05;;;;;;;7.93;3.10;;;;;;;-145.18;100.00;60484.78;5060360;28;20036;-67
2021/11/02 02:29:34;;;;;;;9.57;3.33;;;;;;;-145.18;100.00;60484.78;5071594;28;20024;-67
2021/11/02 02:32:02;;;;;;;8.93;3.20;;;;;;;-145.18;100.00;60484.78;5063610;28;20027;-67
2021/11/02 02:34:29;;;;;;;11.07;2.90;;;;;;;-145.18;100.00;60484.78;5071093;28;20115;-66
2021/11/02 02:36:57;;;;;;;6.20;2.97;;;;;;;-145.18;100.00;60484.78;5075317;28;20035;-66
2021/11/02 02:39:24;;;;;;;10.73;3.13;;;;;;;-145.18;100.00;60484.78;5074816;28;20063;-65
2021/11/02 02:41:51;;;;;;;9.13;2.90;;;;;;;-145.18;100.00;60484.78;5077298;28;20024;-66
2021/11/02 02:44:18;;;;;;;6.20;2.50;;;;;;;-145.18;100.00;60484.78;5071009;28;20035;-66
2021/11/02 02:46:44;;;;;;;7.10;3.33;;;;;;;-145.18;100.00;60484.78;5078064;28;20016;-66
2021/11/02 02:49:13;;;;;;;5.97;2.73;;;;;;;-145.18;100.00;60484.78;5071108;28;20108;-65
2021/11/02 02:51:43;;;;;;;6.97;3.27;;;;;;;-145.18;100.00;60484.78;5064033;28;20396;-65
2021/11/02 02:54:12;;;;;;;9.83;2.50;;;;;;;-145.18;100.00;60484.78;5071704;28;20055;-66
2021/11/02 02:56:42;;;;;;;7.70;2.60;;;;;;;-145.18;100.00;60484.78;5068245;28;20212;-66
2021/11/02 02:59:09;;;;;;;10.83;3.53;;;;;;;-145.18;100.00;60484.78;5077628;28;20032;-66
2021/11/02 03:01:34;;;;;;;9.27;3.07;;;;;;;-145.18;100.00;60484.78;5067391;28;20025;-66
2021/11/02 03:04:04;;;;;;;6.57;3.03;;;;;;;-145.18;100.00;60484.78;5074339;28;21290;-65
2021/11/02 03:06:35;;;;;;;9.40;3.03;;;;;;;-145.18;100.00;60484.78;5067606;28;20024;-66
2021/11/02 03:09:01;;;;;;;15.77;3.73;;;;;;;-145.18;100.00;60484.78;5078861;28;20039;-66
2021/11/02 03:11:28;;;;;;;12.37;3.53;;;;;;;-145.18;100.00;60484.78;5076164;28;20039;-65
2021/11/02 03:13:57;;;;;;;8.33;3.50;;;;;;;-145.18;100.00;60484.78;5073083;28;20288;-65
2021/11/02 03:16:38;;;;;;;8.03;2.70;;;;;;;-145.18;100.00;60484.78;5080518;28;20035;-65
2021/11/02 03:44:06;;;;;;;12.53;3.30;;;;;;;-145.18;100.00;60484.78;4992547;28;20594;-67
2021/11/02 05:58:47;;;;;;;17.80;6.20;;;;;;;-145.18;100.00;60484.78;5073379;28;20035;-70
2021/11/02 06:01:08;;;;;;;21.57;6.60;;;;;;;-145.18;100.00;60484.78;5072511;28;20896;-70
2021/11/02 06:03:43;;;;;;;18.67;5.90;;;;;;;-145.18;100.00;60484.78;5074920;28;20313;-70
2021/11/02 06:08:59;;;;;;;18.03;6.73;;;;;;;-145.18;100.00;60484.78;5068222;28;20632;-70
2021/11/02 06:28:59;;;;;;;24.57;6.50;;;;;;;-145.18;100.00;60484.78;5077391;28;20657;-69
2021/11/02 06:31:37;;;;;;;19.13;7.00;;;;;;;-145.18;100.00;60484.78;5078339;28;20597;-69
2021/11/02 06:34:21;;;;;;;21.73;7.10;;;;;;;-145.18;100.00;60484.78;5081320;28;20717;-69
2021/11/02 07:20:13;;;;;;;34.97;10.20;;;;;;;-145.18;100.00;60484.78;5078544;28;20039;-70
2021/11/02 07:25:31;;;;;;;29.37;8.93;;;;;;;-145.18;100.00;60484.78;5079363;28;20332;-69
2021/11/02 08:47:07;;;;;;;15.23;3.27;;;;;;;-145.18;100.00;60484.78;4974738;28;20292;-70
2021/11/02 08:49:36;;;;;;;9.23;3.23;;;;;;;-145.18;100.00;60484.78;4974429;28;20589;-70
2021/11/02 08:52:03;;;;;;;11.37;3.43;;;;;;;-145.18;100.00;60484.78;4973278;28;20097;-69
2021/11/02 08:54:29;;;;;;;9.37;4.00;;;;;;;-145.18;100.00;60484.78;4977537;28;20173;-70
2021/11/02 08:56:55;;;;;;;8.47;3.20;;;;;;;-145.18;100.00;60484.78;4972617;28;20542;-70
2021/11/02 08:59:21;;;;;;;7.87;3.57;;;;;;;-145.18;100.00;60484.78;4977353;28;20075;-70
2021/11/02 09:01:57;;;;;;;11.80;3.80;;;;;;;-145.18;100.00;60484.78;5051220;28;20055;-70
2021/11/02 09:04:38;;;;;;;9.17;4.33;;;;;;;-145.18;100.00;60484.78;5072529;28;20073;-70
2021/11/02 09:07:05;;;;;;;8.30;3.57;;;;;;;-145.18;100.00;60484.78;5073112;28;20031;-70
2021/11/02 09:09:36;;;;;;;7.80;3.67;;;;;;;-145.18;100.00;60484.78;5072525;28;20273;-70
2021/11/02 09:12:03;;;;;;;9.25;4.10;;;;;;;-145.18;100.00;60484.78;5072697;28;20024;-70
2021/11/02 09:14:35;;;;;;;10.43;3.60;;;;;;;-145.18;100.00;60484.78;5074541;28;20283;-70
2021/11/02 09:17:02;;;;;;;10.60;4.07;;;;;;;-145.18;100.00;60484.78;5070899;28;20507;-70
2021/11/02 09:19:29;;;;;;;10.20;4.40;;;;;;;-145.18;100.00;60484.78;5074988;28;20500;-70
2021/11/02 09:21:56;;;;;;;12.50;4.60;;;;;;;-145.18;100.00;60484.78;5073264;28;20034;-70
2021/11/02 09:24:23;;;;;;;10.40;4.33;;;;;;;-145.18;100.00;60484.78;5073728;28;20016;-70
2021/11/02 09:26:49;;;;;;;11.23;4.40;;;;;;;-145.18;100.00;60484.78;5069336;28;20024;-70
2021/11/02 09:29:18;;;;;;;10.13;4.37;;;;;;;-145.18;100.00;60484.78;5072850;28;20019;-70
2021/11/02 09:31:45;;;;;;;10.67;4.50;;;;;;;-145.18;100.00;60484.78;5074682;28;20028;-70
2021/11/02 09:34:11;;;;;;;11.43;4.40;;;;;;;-145.18;100.00;60484.78;5069405;28;20380;-70
2021/11/02 09:36:42;;;;;;;15.93;4.57;;;;;;;-145.18;100.00;60484.78;5075048;28;20024;-70
2021/11/02 09:39:12;;;;;;;14.55;5.00;;;;;;;-145.18;100.00;60484.78;5069282;28;20031;-70
2021/11/02 09:41:40;;;;;;;11.10;4.27;;;;;;;-145.18;100.00;60484.78;5071671;28;20292;-70
2021/11/02 09:44:24;;;;;;;12.63;5.17;;;;;;;-145.18;100.00;60484.78;5070485;28;20089;-70
2021/11/02 09:47:30;;;;;;;15.13;4.27;;;;;;;-145.18;100.00;60484.78;5071225;28;20044;-70
2021/11/02 09:50:02;;;;;;;11.57;4.20;;;;;;;-145.18;100.00;60484.78;5067188;28;20396;-70
2021/11/02 09:52:47;;;;;;;12.25;5.03;;;;;;;-145.18;100.00;60484.78;5074554;28;20036;-70
2021/11/02 09:55:36;;;;;;;9.17;4.43;;;;;;;-145.18;100.00;60484.78;5070338;28;20131;-70
2021/11/02 09:58:37;;;;;;;8.87;4.13;;;;;;;-145.18;100.00;60484.78;5070795;28;20040;-70
2021/11/02 10:01:34;;;;;;;9.17;4.60;;;;;;;-145.18;100.00;60484.78;5074255;28;20401;-70
2021/11/02 10:04:02;;;;;;;12.00;4.63;;;;;;;-145.18;100.00;60484.78;5076665;28;20187;-69
2021/11/02 10:06:53;;;;;;;7.13;3.90;;;;;;;-145.18;100.00;60484.78;5081732;28;20105;-69
2021/11/02 10:09:38;;;;;;;12.73;4.07;;;;;;;-145.18;100.00;60484.78;5078389;28;20032;-69
2021/11/02 10:12:22;;;;;;;8.23;4.07;;;;;;;-145.18;100.00;60484.78;5076580;28;20040;-69
2021/11/02 10:15:05;;;;;;;8.83;3.60;;;;;;;-145.18;100.00;60484.78;5069730;28;20066;-69
2021/11/02 10:18:03;;;;;;;12.07;4.40;;;;;;;-145.18;100.00;60484.78;5078237;28;20032;-69
2021/11/02 10:20:53;;;;;;;9.30;3.83;;;;;;;-145.18;100.00;60484.78;5074779;28;20109;-69
2021/11/02 10:23:31;;;;;;;9.50;3.67;;;;;;;-145.18;100.00;60484.78;5076933;28;20035;-69
2021/11/02 10:26:23;;;;;;;9.80;4.30;;;;;;;-145.18;100.00;60484.78;5077862;28;20408;-69
2021/11/02 10:29:49;;;;;;;9.33;3.80;;;;;;;-145.18;100.00;60484.78;5081250;28;20103;-69
2021/11/02 10:32:17;;;;;;;8.30;4.03;;;;;;;-145.18;100.00;60484.78;4998952;28;20410;-69
2021/11/02 10:34:44;;;;;;;9.27;4.20;;;;;;;-145.18;100.00;60484.78;4998109;28;20030;-69
2021/11/02 10:37:31;;;;;;;9.03;4.10;;;;;;;-145.18;100.00;60484.78;4998700;28;20026;-69
2021/11/02 10:40:43;;;;;;;9.77;4.30;;;;;;;-145.18;100.00;60484.78;4998515;28;20029;-69
2021/11/02 10:43:24;;;;;;;11.10;4.37;;;;;;;-145.18;100.00;60484.78;4995527;28;20033;-69
2021/11/02 10:45:55;;;;;;;11.40;4.30;;;;;;;-145.18;100.00;60484.78;4998101;28;20037;-69
2021/11/02 10:48:30;;;;;;;12.70;4.87;;;;;;;-145.18;100.00;60484.78;4993473;28;20333;-69
2021/11/02 10:51:04;;;;;;;10.30;4.40;;;;;;;-145.18;100.00;60484.78;4997124;28;20493;-69
2021/11/02 10:53:36;;;;;;;8.17;4.33;;;;;;;-145.18;100.00;60484.78;4998348;28;20454;-69
2021/11/02 10:56:18;;;;;;;;;;;;;;;-145.18;100.00;60484.78;4998424;28;20576;-69
2021/11/02 10:58:53;;;;;;;8.53;3.77;;;;;;;-145.18;100.00;60484.78;4998094;28;19924;-69
2021/11/02 11:01:26;;;;;;;9.53;4.60;;;;;;;-145.18;100.00;60484.78;4998288;28;20038;-69
2021/11/02 11:03:55;;;;;;;10.20;3.80;;;;;;;-145.18;100.00;60484.78;4997916;28;20041;-69
2021/11/02 11:06:25;;;;;;;11.23;3.90;;;;;;;-145.18;100.00;60484.78;4997983;28;20109;-69
2021/11/02 11:08:51;;;;;;;8.07;3.97;;;;;;;-145.18;100.00;60484.78;5053958;28;20052;-69
2021/11/02 11:11:20;;;;;;;6.43;3.10;;;;;;;-145.18;100.00;60484.78;5076164;28;20024;-69
2021/11/02 11:13:51;;;;;;;9.00;3.80;;;;;;;-145.18;100.00;60484.78;5081279;28;20259;-69
2021/11/02 11:16:27;;;;;;;8.13;3.37;;;;;;;-145.18;100.00;60484.78;5077055;28;20482;-69
2021/11/02 11:18:52;;;;;;;8.87;3.60;;;;;;;-145.18;100.00;60484.78;5074460;28;20048;-69
2021/11/02 11:21:22;;;;;;;6.27;3.00;;;;;;;-145.18;100.00;60484.78;5080560;28;20112;-69
2021/11/02 11:24:06;;;;;;;9.70;3.40;;;;;;;-145.18;100.00;60484.78;5080795;28;20359;-69
2021/11/02 11:26:32;;;;;;;6.80;3.30;;;;;;;-145.18;100.00;60484.78;5079867;28;20055;-69
2021/11/02 11:29:02;;;;;;;6.93;3.53;;;;;;;-145.18;100.00;60484.78;5080513;28;20031;-69
2021/11/02 11:31:28;;;;;;;11.50;3.67;;;;;;;-145.18;100.00;60484.78;5073484;28;20566;-69
2021/11/02 11:34:01;;;;;;;11.60;3.83;;;;;;;-145.18;100.00;60484.78;5072381;28;20019;-69
2021/11/02 11:36:28;;;;;;;7.30;4.20;;;;;;;-145.18;100.00;60484.78;5080228;28;20080;-69
2021/11/02 11:38:57;;;;;;;10.27;4.33;;;;;;;-145.18;100.00;60484.78;5080636;28;20024;-69
2021/11/02 11:41:25;;;;;;;10.87;4.13;;;;;;;-145.18;100.00;60484.78;5079663;28;20035;-69
2021/11/02 11:43:53;;;;;;;5.77;3.50;;;;;;;-145.18;100.00;60484.78;5079327;28;20477;-69
2021/11/02 11:46:19;;;;;;;6.43;3.73;;;;;;;-145.18;100.00;60484.78;5073148;28;20530;-69
2021/11/02 11:48:52;;;;;;;8.83;4.17;;;;;;;-145.18;100.00;60484.78;5080620;28;20034;-69
2021/11/02 11:51:27;;;;;;;9.40;4.00;;;;;;;-145.18;100.00;60484.78;5074609;28;20024;-69
2021/11/02 11:54:08;;;;;;;8.53;3.97;;;;;;;-145.18;100.00;60484.78;5080571;28;20024;-69
2021/11/02 11:56:37;;;;;;;8.27;4.83;;;;;;;-145.18;100.00;60484.78;5079974;28;20492;-70
2021/11/02 11:59:04;;;;;;;7.83;4.47;;;;;;;-145.18;100.00;60484.78;5080319;28;20465;-70
2021/11/02 12:02:03;;;;;;;11.30;3.83;;;;;;;-145.18;100.00;60484.78;5077919;28;20019;-70
2021/11/02 12:04:47;;;;;;;8.93;3.83;;;;;;;-145.18;100.00;60484.78;5077466;28;20118;-70
2021/11/02 12:07:31;;;;;;;8.63;3.57;;;;;;;-145.18;100.00;60484.78;5079674;28;20141;-70
2021/11/02 12:10:04;;;;;;;7.83;4.10;;;;;;;-145.18;100.00;60484.78;5080124;28;20058;-70
2021/11/02 12:12:33;;;;;;;6.57;4.10;;;;;;;-145.18;100.00;60484.78;5075081;28;20028;-69
2021/11/02 12:15:01;;;;;;;7.77;3.80;;;;;;;-145.18;100.00;60484.78;5080079;28;20511;-69
2021/11/02 12:17:29;;;;;;;12.50;4.50;;;;;;;-145.18;100.00;60484.78;5079492;28;20043;-69
2021/11/02 12:20:05;;;;;;;6.73;3.73;;;;;;;-145.18;100.00;60484.78;5076969;28;20028;-69
2021/11/02 12:22:34;;;;;;;9.03;3.70;;;;;;;-145.18;100.00;60484.78;5079733;28;20089;-69
2021/11/02 12:25:06;;;;;;;7.47;3.90;;;;;;;-145.18;100.00;60484.78;5077827;28;20150;-69
2021/11/02 12:27:37;;;;;;;7.43;3.80;;;;;;;-145.18;100.00;60484.78;5079419;28;20036;-69
2021/11/02 12:30:15;;;;;;;11.20;5.10;;;;;;;-145.18;100.00;60484.78;5076396;28;20024;-69
2021/11/02 12:33:18;;;;;;;9.70;3.63;;;;;;;-145.18;100.00;60484.78;5079535;28;20039;-69
2021/11/02 12:35:45;;;;;;;7.17;3.67;;;;;;;-145.18;100.00;60484.78;5073241;28;20434;-69
2021/11/02 12:38:11;;;;;;;9.57;3.90;;;;;;;-145.18;100.00;60484.78;5076653;28;20019;-69
2021/11/02 12:40:40;;;;;;;6.37;3.87;;;;;;;-145.18;100.00;60484.78;5079314;28;20055;-69
2021/11/02 12:43:21;;;;;;;6.10;3.83;;;;;;;-145.18;100.00;60484.78;5079554;28;20184;-69
2021/11/02 12:45:47;;;;;;;7.07;3.70;;;;;;;-145.18;100.00;60484.78;5072165;28;20019;-69
2021/11/02 12:48:13;;;;;;;6.73;3.87;;;;;;;-145.18;100.00;60484.78;5078931;28;20115;-69
2021/11/02 12:50:39;;;;;;;7.97;4.43;;;;;;;-145.18;100.00;60484.78;5077626;28;20032;-69
2021/11/02 12:53:06;;;;;;;7.07;3.50;;;;;;;-145.18;100.00;60484.78;5071532;28;20028;-69
2021/11/02 12:55:33;;;;;;;5.63;3.43;;;;;;;-145.18;100.00;60484.78;5079054;28;20023;-69
2021/11/02 12:58:20;;;;;;;5.93;3.83;;;;;;;-145.18;100.00;60484.78;5079377;28;20062;-69
2021/11/02 13:00:52;;;;;;;10.23;4.00;;;;;;;-145.18;100.00;60484.78;5078746;28;20396;-69
2021/11/02 13:03:28;;;;;;;6.18;4.03;;;;;;;-145.18;100.00;60484.78;5078461;28;20081;-71
2021/11/02 13:06:04;;;;;;;5.87;3.70;;;;;;;-145.18;100.00;60484.78;5077394;28;20543;-71
2021/11/02 13:08:37;;;;;;;7.90;3.70;;;;;;;-145.18;100.00;60484.78;5081387;28;20015;-69
2021/11/02 13:11:12;;;;;;;7.10;4.10;;;;;;;-145.18;100.00;60484.78;5077688;28;20092;-69
2021/11/02 13:14:01;;;;;;;8.10;4.13;;;;;;;-145.18;100.00;60484.78;5076132;28;20024;-69
2021/11/02 13:16:29;;;;;;;6.03;3.63;;;;;;;-145.18;100.00;60484.78;5078968;28;20309;-69
2021/11/02 13:18:55;;;;;;;7.97;4.20;;;;;;;-145.18;100.00;60484.78;5078519;28;20032;-69
2021/11/02 13:21:33;;;;;;;6.23;3.67;;;;;;;-145.18;100.00;60484.78;5078870;28;20057;-69
2021/11/02 13:24:13;;;;;;;5.83;3.77;;;;;;;-145.18;100.00;60484.78;5077512;28;20024;-69
2021/11/02 13:26:42;;;;;;;7.63;3.70;;;;;;;-145.18;100.00;60484.78;5077849;28;20031;-69
2021/11/02 13:29:13;;;;;;;7.80;4.50;;;;;;;-145.18;100.00;60484.78;5078364;28;20142;-69
2021/11/02 13:31:40;;;;;;;10.03;4.10;;;;;;;-145.18;100.00;60484.78;5078407;28;20103;-69
2021/11/02 13:34:12;;;;;;;6.03;3.53;;;;;;;-145.18;100.00;60484.78;5069112;28;20214;-69
2021/11/02 13:36:38;;;;;;;8.50;3.97;;;;;;;-145.18;100.00;60484.78;5073983;28;20132;-69
2021/11/02 13:39:14;;;;;;;8.20;3.80;;;;;;;-145.18;100.00;60484.78;5078457;28;20252;-69
2021/11/02 13:41:49;;;;;;;7.03;3.37;;;;;;;-145.18;100.00;60484.78;5077813;28;20039;-69
2021/11/02 13:44:15;;;;;;;12.73;3.80;;;;;;;-145.18;100.00;60484.78;5072002;28;20111;-69
2021/11/02 13:46:47;;;;;;;8.00;3.57;;;;;;;-145.18;100.00;60484.78;5078117;28;20107;-69
2021/11/02 13:49:15;;;;;;;6.80;3.42;;;;;;;-145.18;100.00;60484.78;5078049;28;20252;-70
2021/11/02 13:51:40;;;;;;;5.50;3.37;;;;;;;-145.18;100.00;60484.78;5074846;28;20370;-69
2021/11/02 13:54:08;;;;;;;7.47;3.50;;;;;;;-145.18;100.00;60484.78;5077284;28;20119;-69
2021/11/02 13:56:36;;;;;;;6.03;3.43;;;;;;;-145.18;100.00;60484.78;5076533;28;20776;-70
2021/11/02 13:59:05;;;;;;;7.93;3.40;;;;;;;-145.18;100.00;60484.78;5074307;28;20031;-70
2021/11/02 14:01:37;;;;;;;5.40;3.43;;;;;;;-145.18;100.00;60484.78;5077942;28;20028;-70
2021/11/02 14:04:14;;;;;;;4.72;3.33;;;;;;;-145.18;100.00;60484.78;5077497;28;20052;-70
2021/11/02 14:06:44;;;;;;;6.00;3.40;;;;;;;-145.18;100.00;60484.78;5075898;28;20097;-70
2021/11/02 14:09:13;;;;;;;8.43;4.57;;;;;;;-145.18;100.00;60484.78;5076420;28;20020;-70
2021/11/02 14:11:39;;;;;;;6.07;4.27;;;;;;;-145.18;100.00;60484.78;5077699;28;20801;-70
2021/11/02 14:14:10;;;;;;;5.37;3.87;;;;;;;-145.18;100.00;60484.78;5077636;28;20271;-70
2021/11/02 14:16:43;;;;;;;5.90;3.55;;;;;;;-145.18;100.00;60484.78;5076886;28;20063;-70
2021/11/02 14:19:34;;;;;;;5.37;3.60;;;;;;;-145.18;100.00;60484.78;5068083;28;20116;-70
2021/11/02 14:22:02;;;;;;;6.60;3.70;;;;;;;-145.18;100.00;60484.78;5077548;28;20241;-69
2021/11/02 14:24:38;;;;;;;4.97;3.50;;;;;;;-145.18;100.00;60484.78;5068641;28;20488;-70
2021/11/02 14:27:08;;;;;;;5.43;3.93;;;;;;;-145.18;100.00;60484.78;5077849;28;20110;-70
2021/11/02 14:29:54;;;;;;;7.73;4.13;;;;;;;-145.18;100.00;60484.78;5069459;28;20021;-70
2021/11/02 14:32:46;;;;;;;8.03;4.03;;;;;;;-145.18;100.00;60484.78;5076819;28;20223;-70
2021/11/02 14:35:33;;;;;;;10.52;4.35;;;;;;;-145.18;100.00;60484.78;5060894;28;20488;-70
2021/11/02 14:38:09;;;;;;;7.83;4.53;;;;;;;-145.18;100.00;60484.78;5076966;28;20198;-70
2021/11/02 14:40:40;;;;;;;6.23;4.20;;;;;;;-145.18;100.00;60484.78;5069169;28;20032;-70
2021/11/02 14:43:14;;;;;;;7.03;4.10;;;;;;;-145.18;100.00;60484.78;5077864;28;20099;-70
2021/11/02 14:45:41;;;;;;;7.80;4.40;;;;;;;-145.18;100.00;60484.78;5078460;28;20274;-70
2021/11/02 14:48:25;;;;;;;7.70;4.50;;;;;;;-145.18;100.00;60484.78;5080945;28;20024;-70
2021/11/02 14:51:12;;;;;;;7.40;4.73;;;;;;;-145.18;100.00;60484.78;5077642;28;20237;-70
2021/11/02 14:53:41;;;;;;;12.03;4.97;;;;;;;-145.18;100.00;60484.78;5077621;28;20118;-70
2021/11/02 14:56:12;;;;;;;11.37;5.17;;;;;;;-145.18;100.00;60484.78;5081450;28;20117;-71
2021/11/02 14:58:41;;;;;;;11.23;5.30;;;;;;;-145.18;100.00;60484.78;5081519;28;20291;-70
2021/11/02 15:01:33;;;;;;;9.23;5.10;;;;;;;-145.18;100.00;60484.78;5081210;28;20419;-70
2021/11/02 15:04:06;;;;;;;11.35;5.43;;;;;;;-145.18;100.00;60484.78;5012745;28;20033;-70
2021/11/02 15:06:35;;;;;;;9.73;5.30;;;;;;;-145.18;100.00;60484.78;5019262;28;20119;-70
2021/11/02 15:09:04;;;;;;;7.93;5.33;;;;;;;-145.18;100.00;60484.78;5016300;28;20056;-70
2021/11/02 15:11:30;;;;;;;9.80;5.23;;;;;;;-145.18;100.00;60484.78;5014988;28;20029;-70
2021/11/02 15:13:59;;;;;;;8.83;5.27;;;;;;;-145.18;100.00;60484.78;5017124;28;20063;-70
2021/11/02 15:16:26;;;;;;;9.30;5.27;;;;;;;-145.18;100.00;60484.78;5017657;28;20030;-70
2021/11/02 15:18:58;;;;;;;8.47;5.20;;;;;;;-145.18;100.00;60484.78;5017354;28;20569;-70
2021/11/02 15:21:32;;;;;;;10.57;5.32;;;;;;;-145.18;100.00;60484.78;5017684;28;20029;-70
2021/11/02 15:24:05;;;;;;;8.30;5.20;;;;;;;-145.18;100.00;60484.78;5009594;28;20040;-70
2021/11/02 15:26:45;;;;;;;11.60;5.53;;;;;;;-145.18;100.00;60484.78;5015008;28;20462;-70
2021/11/02 15:29:11;;;;;;;8.53;5.33;;;;;;;-145.18;100.00;60484.78;5001113;28;20021;-70
2021/11/02 15:31:37;;;;;;;10.27;5.00;;;;;;;-145.18;100.00;60484.78;5017255;28;20026;-70
2021/11/02 15:34:14;;;;;;;8.57;5.40;;;;;;;-145.18;100.00;60484.78;5016725;28;20318;-70
2021/11/02 15:36:41;;;;;;;9.50;5.30;;;;;;;-145.18;100.00;60484.78;5016348;28;20097;-70
2021/11/02 15:39:07;;;;;;;11.33;5.33;;;;;;;-145.18;100.00;60484.78;5017394;28;20291;-70
2021/11/02 15:41:33;;;;;;;9.47;5.47;;;;;;;-145.18;100.00;60484.78;5067478;28;20653;-70
2021/11/02 15:44:09;;;;;;;9.80;5.37;;;;;;;-145.18;100.00;60484.78;5076240;28;20196;-70
2021/11/02 15:46:40;;;;;;;11.57;5.53;;;;;;;-145.18;100.00;60484.78;5074218;28;20100;-70
2021/11/02 15:49:07;;;;;;;9.90;6.07;;;;;;;-145.18;100.00;60484.78;5080707;28;20024;-70
2021/11/02 15:51:42;;;;;;;8.57;5.50;;;;;;;-145.18;100.00;60484.78;5080293;28;20024;-70
2021/11/02 15:54:09;;;;;;;10.00;5.70;;;;;;;-145.18;100.00;60484.78;5056483;28;20256;-70
2021/11/02 15:56:35;;;;;;;11.63;6.30;;;;;;;-145.18;100.00;60484.78;5073604;28;20505;-70
2021/11/02 15:59:04;;;;;;;9.77;6.20;;;;;;;-145.18;100.00;60484.78;5077893;28;20313;-70
2021/11/02 16:01:40;;;;;;;12.20;6.00;;;;;;;-145.18;100.00;60484.78;5078991;28;20024;-70
2021/11/02 16:04:26;;;;;;;10.80;6.00;;;;;;;-145.18;100.00;60484.78;5077638;28;20068;-70
2021/11/02 16:07:00;;;;;;;13.27;5.80;;;;;;;-145.18;100.00;60484.78;5079156;28;20186;-70
2021/11/02 16:09:43;;;;;;;14.20;6.10;;;;;;;-145.18;100.00;60484.78;5080093;28;20024;-70
2021/11/02 16:12:23;;;;;;;14.63;6.15;;;;;;;-145.18;100.00;60484.78;5080141;28;20111;-70
2021/11/02 16:15:09;;;;;;;12.17;5.50;;;;;;;-145.18;100.00;60484.78;5077178;28;20031;-70
2021/11/02 16:17:39;;;;;;;13.77;6.77;;;;;;;-145.18;100.00;60484.78;5079826;28;20245;-70
2021/11/02 16:20:05;;;;;;;23.40;6.03;;;;;;;-145.18;100.00;60484.78;5080152;28;20396;-70
2021/11/02 16:22:47;;;;;;;10.83;5.53;;;;;;;-145.18;100.00;60484.78;5079697;28;20178;-70
2021/11/02 16:25:13;;;;;;;11.10;6.47;;;;;;;-145.18;100.00;60484.78;5069754;28;20024;-70
2021/11/02 16:27:38;;;;;;;12.77;6.37;;;;;;;-145.18;100.00;60484.78;5079423;28;20020;-70
2021/11/02 16:30:17;;;;;;;12.60;6.10;;;;;;;-145.18;100.00;60484.78;5080102;28;20092;-70
2021/11/02 16:32:46;;;;;;;11.70;6.10;;;;;;;-145.18;100.00;60484.78;5079823;28;20512;-70
2021/11/02 16:35:11;;;;;;;13.93;7.00;;;;;;;-145.18;100.00;60484.78;5069413;28;20413;-70